Time;durP1;ratioP1;P1;durP2;ratioP2;P2;SDS_P1;SDS_P2;PMS_P1;PMS_P2;Temp;Humidity;BMP_temperature;BMP_pressure;BME280_temperature;BME280_humidity;BME280_pressure;Samples;Min_cycle;Max_cycle;Signal;HPM_P1;HPM_P2
2022/04/07 00:13:43;;;;;;;;;1.25;0.00;;;;;12.13;64.71;99658.25;5056118;28;45149;-96
2022/04/07 00:16:15;;;;;;;;;1.25;1.25;;;;;12.21;64.82;99665.06;5038603;28;44660;-96
2022/04/07 00:18:45;;;;;;;;;1.25;1.00;;;;;12.24;65.07;99680.81;5035873;28;45453;-95
2022/04/07 00:21:34;;;;;;;;;;;;;;;;;;;;;
2022/04/07 00:24:21;;;;;;;;;2.25;1.75;;;;;12.16;64.73;99661.69;5036679;28;72253;-95
2022/04/07 00:26:49;;;;;;;;;1.00;1.00;;;;;12.18;64.71;99671.28;5034262;28;44817;-96
2022/04/07 00:29:21;;;;;;;;;1.00;1.00;;;;;12.18;64.67;99651.97;5036654;28;45551;-94
2022/04/07 00:31:57;;;;;;;;;;;;;;;;;;;;;
2022/04/07 00:34:44;;;;;;;;;;;;;;;;;;;;;
2022/04/07 00:37:22;;;;;;;;;;;;;;;;;;;;;
2022/04/07 00:39:54;;;;;;;;;2.00;1.75;;;;;12.21;64.29;99649.25;5055992;28;71824;-94
2022/04/07 00:42:34;;;;;;;;;;;;;;;;;;;;;
2022/04/07 00:45:04;;;;;;;;;1.50;1.50;;;;;12.22;64.32;99651.00;5065668;28;73229;-95
2022/04/07 00:47:30;;;;;;;;;2.00;2.00;;;;;12.23;64.08;99634.25;5048030;28;44629;-95
2022/04/07 00:50:01;;;;;;;;;2.75;2.00;;;;;12.16;64.27;99603.66;5037244;28;44790;-95
2022/04/07 00:52:31;;;;;;;;;2.00;1.00;;;;;12.19;64.23;99593.00;5051180;28;45518;-95
2022/04/07 00:54:59;;;;;;;;;1.00;1.00;;;;;12.24;64.23;99607.81;5034515;28;44725;-94
2022/04/07 00:57:31;;;;;;;;;1.00;1.00;;;;;12.20;64.17;99592.09;5034053;28;45422;-95
2022/04/07 00:59:58;;;;;;;;;0.50;0.50;;;;;12.29;64.30;99597.09;5033460;28;45218;-95
2022/04/07 01:02:26;;;;;;;;;3.00;3.00;;;;;12.23;64.35;99584.09;5034395;28;46781;-95
2022/04/07 01:04:56;;;;;;;;;3.50;1.75;;;;;12.28;64.20;99579.56;5034736;28;44806;-94
2022/04/07 01:10:44;;;;;;;;;1.00;1.00;;;;;12.19;64.47;99545.50;5061398;28;44714;-96
2022/04/07 01:13:23;;;;;;;;;;;;;;;;;;;;;
2022/04/07 01:16:05;;;;;;;;;2.50;2.50;;;;;12.26;64.19;99547.06;5047786;28;44555;-95
2022/04/07 01:18:34;;;;;;;;;3.00;1.00;;;;;12.22;64.24;99548.94;5034405;28;45202;-95
2022/04/07 01:21:22;;;;;;;;;;;;;;;;;;;;;
2022/04/07 01:24:02;;;;;;;;;2.00;0.75;;;;;12.32;65.02;99557.44;5330024;22;74794;-95
2022/04/07 01:30:04;;;;;;;;;;;;;;;;;;;;;
2022/04/07 01:32:50;;;;;;;;;2.00;2.00;;;;;12.17;65.82;99540.28;5015971;28;71467;-96
2022/04/07 01:35:22;;;;;;;;;2.00;0.00;;;;;12.13;66.19;99543.91;4995539;28;47668;-94
2022/04/07 01:37:49;;;;;;;;;3.00;3.00;;;;;12.19;66.11;99540.22;5014468;28;44780;-95
2022/04/07 01:40:21;;;;;;;;;1.50;1.50;;;;;12.14;66.24;99522.78;5010388;28;44692;-95
2022/04/07 01:42:52;;;;;;;;;1.25;1.00;;;;;12.09;66.20;99511.50;4989207;28;44852;-95
2022/04/07 01:45:25;;;;;;;;;2.00;1.00;;;;;12.14;66.26;99524.56;4990335;28;46949;-95
2022/04/07 01:47:57;;;;;;;;;2.50;0.75;;;;;12.05;66.28;99511.63;5006648;28;44875;-96
2022/04/07 01:51:03;;;;;;;;;1.75;1.75;;;;;12.16;66.14;99522.72;4997566;28;45333;-95
2022/04/07 01:54:24;;;;;;;;;;;;;;;;;;;;;
2022/04/07 01:56:56;;;;;;;;;4.75;3.00;;;;;12.15;66.17;99515.72;5013745;28;74168;-95
2022/04/07 01:59:28;;;;;;;;;3.50;2.25;;;;;12.07;66.44;99509.81;5016465;28;44781;-96
2022/04/07 02:02:04;;;;;;;;;0.75;0.75;;;;;12.18;66.75;99518.25;4979516;28;44909;-96
2022/04/07 02:05:08;;;;;;;;;;;;;;;;;;;;;
2022/04/07 02:07:43;;;;;;;;;2.75;2.25;;;;;12.13;67.53;99517.53;5013899;28;74321;-96
2022/04/07 02:10:12;;;;;;;;;0.75;0.75;;;;;12.09;67.58;99508.00;5022605;28;44744;-95
2022/04/07 02:12:48;;;;;;;;;1.50;1.50;;;;;12.09;67.64;99502.72;5015307;28;44630;-95
2022/04/07 02:15:22;;;;;;;;;1.25;0.25;;;;;12.08;67.72;99503.63;5005954;28;44992;-96
2022/04/07 02:17:58;;;;;;;;;;;;;;;;;;;;;
2022/04/07 02:23:00;;;;;;;;;1.00;0.00;;;;;11.98;68.25;99481.09;5444711;22;45503;-95
2022/04/07 02:25:27;;;;;;;;;1.50;1.00;;;;;11.99;68.23;99475.75;5016017;28;44801;-93
2022/04/07 02:27:54;;;;;;;;;0.75;0.75;;;;;12.06;68.56;99479.94;5034794;28;46116;-95
2022/04/07 02:30:22;;;;;;;;;1.00;1.00;;;;;12.08;68.80;99477.22;5015985;28;45680;-95
2022/04/07 02:32:48;;;;;;;;;1.75;1.75;;;;;11.99;69.61;99456.44;5017852;28;44706;-94
2022/04/07 02:35:14;;;;;;;;;2.50;1.75;;;;;11.98;69.37;99450.28;5014795;28;44797;-93
2022/04/07 02:37:40;;;;;;;;;0.50;0.00;;;;;12.01;69.95;99446.69;5017400;28;47002;-93
2022/04/07 02:40:06;;;;;;;;;4.00;3.50;;;;;12.03;70.24;99437.84;5031106;28;45166;-94
2022/04/07 02:42:42;;;;;;;;;1.25;1.00;;;;;12.03;70.48;99434.31;5015929;28;45263;-95
2022/04/07 02:45:10;;;;;;;;;1.00;0.00;;;;;11.98;70.35;99415.16;5013177;28;45460;-92
2022/04/07 02:47:39;;;;;;;;;3.00;1.00;;;;;11.94;70.42;99408.22;5011279;28;46573;-95
2022/04/07 02:50:06;;;;;;;;;1.00;1.00;;;;;11.91;70.52;99399.50;5002645;28;45442;-92
2022/04/07 02:52:32;;;;;;;;;3.00;1.25;;;;;12.02;70.79;99416.75;5012179;28;45314;-94
2022/04/07 02:54:58;;;;;;;;;2.00;1.00;;;;;12.02;70.53;99406.22;4993472;28;45282;-94
2022/04/07 02:57:25;;;;;;;;;2.00;1.00;;;;;12.01;70.82;99401.84;5013021;28;48076;-93
2022/04/07 02:59:51;;;;;;;;;2.00;2.00;;;;;11.97;70.75;99392.31;5012917;28;45183;-94
2022/04/07 03:02:27;;;;;;;;;2.25;2.25;;;;;11.98;70.85;99378.22;5015116;28;45440;-95
2022/04/07 03:04:55;;;;;;;;;1.25;1.25;;;;;12.01;70.95;99383.41;5011578;28;45361;-96
2022/04/07 03:07:21;;;;;;;;;1.00;1.00;;;;;12.01;70.84;99386.03;5014808;28;47086;-94
2022/04/07 03:09:50;;;;;;;;;2.50;1.00;;;;;12.01;70.53;99370.22;5011363;28;45331;-95
2022/04/07 03:12:18;;;;;;;;;1.00;0.00;;;;;12.00;70.86;99364.06;5012882;28;45244;-96
2022/04/07 03:14:46;;;;;;;;;0.25;0.25;;;;;12.05;70.86;99358.63;5009392;28;45594;-96
2022/04/07 03:17:14;;;;;;;;;1.25;1.25;;;;;12.02;70.82;99364.00;5022698;28;46687;-93
2022/04/07 03:19:40;;;;;;;;;1.00;1.00;;;;;12.04;70.84;99335.81;5025337;28;44616;-94
2022/04/07 03:22:06;;;;;;;;;1.75;0.75;;;;;12.08;70.81;99338.31;5030843;28;44762;-94
2022/04/07 03:24:32;;;;;;;;;2.25;0.75;;;;;12.06;70.83;99328.72;5027397;28;45668;-94
2022/04/07 03:26:57;;;;;;;;;0.00;0.00;;;;;12.04;70.76;99309.44;5035696;28;47161;-95
2022/04/07 03:29:23;;;;;;;;;1.00;1.00;;;;;12.11;70.92;99313.59;5016190;28;45532;-94
2022/04/07 03:31:49;;;;;;;;;1.00;0.75;;;;;12.05;71.19;99297.97;5020590;28;44743;-92
2022/04/07 03:34:15;;;;;;;;;2.50;2.50;;;;;12.11;71.18;99297.78;5014237;28;45491;-93
2022/04/07 03:36:41;;;;;;;;;1.00;1.00;;;;;12.14;71.01;99289.75;5023456;28;45077;-93
2022/04/07 03:39:09;;;;;;;;;0.00;0.00;;;;;12.11;71.52;99282.81;5040371;28;45285;-92
2022/04/07 03:41:35;;;;;;;;;1.75;1.75;;;;;12.14;71.02;99271.28;5011029;28;44677;-95
2022/04/07 03:44:10;;;;;;;;;0.25;0.25;;;;;12.12;71.51;99257.28;5025862;28;44794;-94
2022/04/07 03:46:39;;;;;;;;;4.00;4.00;;;;;12.17;71.71;99257.13;5037558;28;46985;-95
2022/04/07 03:49:05;;;;;;;;;1.00;1.00;;;;;12.17;72.04;99244.81;5026737;28;44750;-96
2022/04/07 03:51:30;;;;;;;;;4.25;2.00;;;;;12.11;71.75;99221.28;5030061;28;44663;-96
2022/04/07 03:53:56;;;;;;;;;3.00;2.00;;;;;12.21;72.22;99224.44;5034096;28;44848;-96
2022/04/07 03:56:25;;;;;;;;;2.00;1.00;;;;;12.21;72.04;99245.53;5034093;28;47228;-95
2022/04/07 03:58:50;;;;;;;;;0.75;0.75;;;;;12.14;72.03;99203.56;5024630;28;44767;-95
2022/04/07 04:01:17;;;;;;;;;2.00;2.00;;;;;12.14;72.26;99200.91;5026565;28;44782;-95
2022/04/07 04:03:52;;;;;;;;;2.00;1.00;;;;;12.22;72.21;99208.56;5026255;28;45046;-94
2022/04/07 04:06:18;;;;;;;;;3.25;1.50;;;;;12.17;72.01;99180.63;5013663;28;46726;-95
2022/04/07 04:08:44;;;;;;;;;4.00;2.00;;;;;12.26;72.18;99199.63;5015975;28;44791;-95
2022/04/07 04:11:12;;;;;;;;;2.25;1.50;;;;;12.28;72.24;99189.03;5029481;28;44738;-95
2022/04/07 04:13:40;;;;;;;;;1.00;1.00;;;;;12.27;72.25;99171.44;5028967;28;44925;-94
2022/04/07 04:16:09;;;;;;;;;0.50;0.50;;;;;12.29;72.22;99173.13;5025766;28;46754;-95
2022/04/07 04:18:41;;;;;;;;;4.25;2.25;;;;;12.32;72.66;99178.31;5024519;28;44822;-95
2022/04/07 04:21:09;;;;;;;;;3.00;3.00;;;;;12.33;72.56;99169.47;5029293;28;44871;-96
2022/04/07 04:24:10;;;;;;;;;;;;;;;;;;;;;
2022/04/07 04:26:37;;;;;;;;;5.00;3.75;;;;;12.27;72.72;99182.00;5044515;28;75025;-96
2022/04/07 04:29:05;;;;;;;;;2.50;0.75;;;;;12.28;72.88;99175.81;5027924;28;44767;-94
2022/04/07 04:31:41;;;;;;;;;2.25;2.25;;;;;12.34;72.70;99175.59;5028070;28;44763;-93
2022/04/07 04:34:36;;;;;;;;;3.25;2.00;;;;;12.38;72.54;99187.78;5028469;28;45558;-95
2022/04/07 04:37:27;;;;;;;;;4.25;2.00;;;;;12.34;72.55;99170.31;5030704;28;45687;-94
2022/04/07 04:40:00;;;;;;;;;3.00;1.75;;;;;12.43;72.89;99169.09;5021575;28;44741;-93
2022/04/07 04:42:41;;;;;;;;;;;;;;;;;;;;;
2022/04/07 04:45:15;;;;;;;;;3.25;3.25;;;;;12.38;72.92;99149.97;5031977;28;72125;-94
2022/04/07 04:47:53;;;;;;;;;2.00;1.25;;;;;12.44;73.14;99158.50;5010810;28;48488;-92
2022/04/07 04:50:19;;;;;;;;;4.00;4.00;;;;;12.46;73.20;99147.91;4998369;28;45579;-94
2022/04/07 04:52:47;;;;;;;;;3.00;3.00;;;;;12.43;73.29;99140.06;5008209;28;45246;-93
2022/04/07 04:55:13;;;;;;;;;1.50;1.50;;;;;12.43;73.07;99140.06;5020379;28;45459;-91
2022/04/07 04:57:39;;;;;;;;;1.00;1.00;;;;;12.45;72.76;99138.25;5007678;28;46880;-92
2022/04/07 05:00:06;;;;;;;;;3.75;2.75;;;;;12.47;72.59;99125.88;5010923;28;45385;-93
2022/04/07 05:02:31;;;;;;;;;2.00;2.00;;;;;12.49;72.50;99135.44;5004919;28;45301;-93
2022/04/07 05:04:57;;;;;;;;;3.00;2.50;;;;;12.46;72.37;99121.50;5005247;28;45365;-92
2022/04/07 05:07:22;;;;;;;;;6.25;2.00;;;;;12.51;72.10;99136.25;5005630;28;47145;-93
2022/04/07 05:09:48;;;;;;;;;2.75;2.00;;;;;12.57;71.74;99121.97;5006486;28;44614;-93
2022/04/07 05:12:29;;;;;;;;;4.50;3.00;;;;;12.57;71.48;99106.97;5008394;28;45302;-94
2022/04/07 05:15:07;;;;;;;;;4.00;3.00;;;;;12.63;71.28;99118.22;5003528;28;45338;-92
2022/04/07 05:17:33;;;;;;;;;2.50;2.50;;;;;12.60;71.00;99094.59;4994929;28;47069;-96
2022/04/07 05:19:59;;;;;;;;;0.50;0.50;;;;;12.65;70.80;99101.41;5005989;28;45612;-95
2022/04/07 05:22:25;;;;;;;;;5.00;4.00;;;;;12.62;70.67;99098.88;5024336;28;45251;-94
2022/04/07 05:24:53;;;;;;;;;1.75;1.00;;;;;12.69;70.49;99095.06;5005455;28;45242;-91
2022/04/07 05:27:19;;;;;;;;;1.50;1.50;;;;;12.71;70.61;99076.53;5018932;28;46944;-90
2022/04/07 05:37:00;;;;;;;;;3.75;3.75;;;;;12.74;70.91;99057.94;4885718;28;45230;-89
2022/04/07 05:44:05;;;;;;;;;3.25;2.25;;;;;12.82;70.65;99066.41;4883879;29;45281;-90
2022/04/07 05:47:09;;;;;;;;;;;;;;;;;;;;;
2022/04/07 05:50:13;;;;;;;;;;;;;;;;;;;;;
2022/04/07 05:53:30;;;;;;;;;;;;;;;;;;;;;
2022/04/07 05:56:16;;;;;;;;;;;;;;;;;;;;;
2022/04/07 05:58:51;;;;;;;;;1.00;0.00;;;;;12.82;69.21;99049.72;4829447;29;69711;-87
2022/04/07 06:01:19;;;;;;;;;1.00;0.25;;;;;12.93;69.11;99063.34;4873002;29;45673;-88
2022/04/07 06:09:56;;;;;;;;;2.00;1.00;;;;;13.00;67.72;99070.09;4998084;28;45597;-86
2022/04/07 06:12:40;;;;;;;;;;;;;;;;;;;;;
2022/04/07 06:15:29;;;;;;;;;;;;;;;;;;;;;
2022/04/07 06:18:17;;;;;;;;;;;;;;;;;;;;;
2022/04/07 06:21:48;;;;;;;;;;;;;;;;;;;;;
2022/04/07 06:24:42;;;;;;;;;4.00;4.00;;;;;13.01;67.86;99042.75;4977789;28;71935;-87
2022/04/07 06:27:08;;;;;;;;;3.00;2.00;;;;;13.07;67.68;99042.53;4985190;28;46158;-87
2022/04/07 06:29:46;;;;;;;;;2.00;2.00;;;;;13.06;67.91;99019.66;4983704;28;45438;-86
2022/04/07 06:32:11;;;;;;;;;5.00;3.00;;;;;13.10;68.56;99047.66;5005393;28;45365;-88
2022/04/07 06:34:42;;;;;;;;;1.00;1.00;;;;;13.07;69.08;99031.06;4984808;28;45613;-89
2022/04/07 06:37:08;;;;;;;;;1.00;1.00;;;;;13.07;68.98;99026.66;5005886;28;45434;-88
2022/04/07 06:39:33;;;;;;;;;1.00;1.00;;;;;13.03;69.23;99007.41;4982343;28;45341;-90
2022/04/07 06:42:04;;;;;;;;;0.00;0.00;;;;;13.01;69.39;99016.34;4976136;28;45308;-88
2022/04/07 06:44:34;;;;;;;;;2.25;2.00;;;;;13.03;69.47;99023.28;4987527;28;45235;-89
2022/04/07 06:47:03;;;;;;;;;1.00;1.00;;;;;13.04;69.38;99026.75;4977838;28;47931;-87
2022/04/07 06:52:53;;;;;;;;;3.00;2.00;;;;;13.11;69.43;99001.81;4974340;28;45584;-87
2022/04/07 06:55:55;;;;;;;;;;;;;;;;;;;;;
2022/04/07 06:58:54;;;;;;;;;;;;;;;;;;;;;
2022/04/07 07:02:31;;;;;;;;;2.00;2.00;;;;;13.11;69.06;98993.03;4987172;28;74311;-86
2022/04/07 07:18:42;;;;;;;;;2.00;2.00;;;;;13.30;69.00;98983.44;4811976;29;45317;-87
2022/04/07 07:21:13;;;;;;;;;3.00;2.00;;;;;13.34;69.25;98982.38;4830472;28;45489;-86
2022/04/07 07:34:55;;;;;;;;;0.33;0.33;;;;;13.39;69.40;98953.97;4765195;29;45512;-87
2022/04/07 07:37:30;;;;;;;;;1.33;1.33;;;;;13.37;69.19;98990.19;4813828;29;46515;-88
2022/04/07 07:40:28;;;;;;;;;2.67;2.00;;;;;13.38;69.20;98970.72;4834905;29;45561;-86
2022/04/07 07:43:32;;;;;;;;;;;;;;;;;;;;;
2022/04/07 07:49:26;;;;;;;;;0.00;0.00;;;;;13.70;68.83;98967.59;4829964;29;45441;-88
2022/04/07 07:52:23;;;;;;;;;1.00;1.00;;;;;13.72;68.72;98944.59;4863007;29;45461;-88
2022/04/07 07:58:51;;;;;;;;;0.00;0.00;;;;;13.88;68.69;98961.47;4918680;28;45740;-89
2022/04/07 08:01:26;;;;;;;;;;;;;;;;;;;;;
2022/04/07 08:04:16;;;;;;;;;;;;;;;;;;;;;
2022/04/07 08:06:42;;;;;;;;;0.00;0.00;;;;;14.14;67.77;98960.28;5002231;28;67883;-88
2022/04/07 08:09:13;;;;;;;;;1.33;1.33;;;;;14.22;67.69;98968.69;4970251;28;45199;-89
2022/04/07 08:11:41;;;;;;;;;0.67;0.67;;;;;14.22;67.15;98966.06;4985854;28;47216;-91
2022/04/07 08:14:08;;;;;;;;;0.00;0.00;;;;;14.27;67.71;98960.53;4970175;28;45284;-88
2022/04/07 08:16:34;;;;;;;;;0.00;0.00;;;;;14.34;68.09;98948.72;4987088;28;45349;-89
2022/04/07 08:19:03;;;;;;;;;1.00;1.00;;;;;14.40;68.07;98951.06;4981124;28;45491;-89
2022/04/07 08:21:29;;;;;;;;;0.00;0.00;;;;;14.46;67.51;98966.69;4998315;28;46367;-90
2022/04/07 08:23:54;;;;;;;;;0.33;0.33;;;;;14.43;67.59;98937.66;5002880;28;45488;-90
2022/04/07 08:26:20;;;;;;;;;0.00;0.00;;;;;14.47;67.39;98939.25;5023011;28;45246;-88
2022/04/07 08:28:46;;;;;;;;;1.00;1.00;;;;;14.54;67.01;98938.06;5003271;28;45417;-88
2022/04/07 08:31:17;;;;;;;;;0.00;0.00;;;;;14.71;66.91;98941.66;5001923;28;46999;-90
2022/04/07 08:33:43;;;;;;;;;1.00;1.00;;;;;14.80;66.37;98941.19;4999554;28;45370;-85
2022/04/07 08:36:09;;;;;;;;;0.33;0.33;;;;;14.88;65.96;98952.25;5000570;28;45456;-84
2022/04/07 08:38:34;;;;;;;;;1.67;1.33;;;;;14.96;65.79;98942.13;5022026;28;45491;-87
2022/04/07 08:41:00;;;;;;;;;0.00;0.00;;;;;15.10;65.16;98943.22;5021854;28;45551;-86
2022/04/07 08:43:26;;;;;;;;;2.00;1.00;;;;;15.12;64.89;98925.44;5025013;28;45453;-85
2022/04/07 08:45:52;;;;;;;;;2.00;1.00;;;;;15.20;64.51;98937.38;5007919;28;45247;-85
2022/04/07 08:48:17;;;;;;;;;1.00;1.00;;;;;15.20;63.94;98952.41;5002018;28;45573;-88
2022/04/07 08:51:24;;;;;;;;;;;;;;;;;;;;;
2022/04/07 08:53:50;;;;;;;;;1.00;1.00;;;;;15.31;63.93;98915.59;5018068;28;72913;-86
2022/04/07 08:59:15;;;;;;;;;3.00;2.00;;;;;15.40;63.16;98911.63;4977019;28;45532;-87
2022/04/07 09:02:38;;;;;;;;;1.00;1.00;;;;;15.60;63.27;98927.31;5017007;28;47244;-87
2022/04/07 09:05:33;;;;;;;;;1.67;1.67;;;;;15.61;62.19;98947.63;5003860;28;45845;-88
2022/04/07 09:08:46;;;;;;;;;1.00;1.00;;;;;15.69;62.52;98978.19;4990005;28;45410;-87
2022/04/07 09:11:12;;;;;;;;;0.33;0.33;;;;;15.77;62.57;98942.38;5002845;28;45449;-89
2022/04/07 09:13:40;;;;;;;;;0.00;0.00;;;;;15.80;62.62;98925.44;4997872;28;46921;-85
2022/04/07 09:16:15;;;;;;;;;0.00;0.00;;;;;15.90;62.58;98936.38;5007540;28;45701;-92
2022/04/07 09:18:59;;;;;;;;;0.00;0.00;;;;;15.96;62.27;98918.34;5006194;28;45325;-93
2022/04/07 09:22:19;;;;;;;;;;;;;;;;;;;;;
2022/04/07 09:25:03;;;;;;;;;;;;;;;;;;;;;
2022/04/07 09:27:39;;;;;;;;;;;;;;;;;;;;;
2022/04/07 09:30:45;;;;;;;;;;;;;;;;;;;;;
2022/04/07 09:33:53;;;;;;;;;1.00;0.00;;;;;16.15;61.30;98934.09;5000063;28;71944;-91
2022/04/07 09:36:21;;;;;;;;;0.00;0.00;;;;;16.15;61.13;98949.19;4982654;28;48648;-87
2022/04/07 09:39:46;;;;;;;;;;;;;;;;;;;;;
2022/04/07 09:42:23;;;;;;;;;0.00;0.00;;;;;16.24;60.91;98953.97;4951334;28;67925;-90
2022/04/07 09:45:15;;;;;;;;;0.00;0.00;;;;;16.20;60.67;98957.72;4947727;28;45404;-90
2022/04/07 09:51:50;;;;;;;;;;;;;;;;;;;;;
2022/04/07 09:54:36;;;;;;;;;;;;;;;;;;;;;
2022/04/07 09:57:36;;;;;;;;;1.00;1.00;;;;;16.18;63.03;98996.81;4953687;28;71290;-92
2022/04/07 10:00:04;;;;;;;;;1.00;0.00;;;;;16.08;63.57;98999.94;4959665;28;46842;-89
2022/04/07 10:12:48;;;;;;;;;0.33;0.33;;;;;15.12;68.49;99071.22;4787309;29;46258;-93
2022/04/07 10:23:01;;;;;;;;;1.00;1.00;;;;;15.37;67.93;99082.34;4764748;29;46507;-87
2022/04/07 10:41:56;;;;;;;;;0.00;0.00;;;;;15.29;65.78;99134.03;4802508;29;45619;-82
2022/04/07 10:44:25;;;;;;;;;0.00;0.00;;;;;15.22;65.43;99134.31;4870028;29;45500;-83
2022/04/07 10:51:20;;;;;;;;;;;;;;;;;;;;;
2022/04/07 10:57:39;;;;;;;;;;;;;;;;;;;;;
2022/04/07 11:00:10;;;;;;;;;1.00;0.00;;;;;15.34;63.13;99143.50;4959448;28;71844;-82
2022/04/07 11:03:25;;;;;;;;;1.00;1.00;;;;;15.36;62.83;99144.25;4989773;28;46180;-84
2022/04/07 11:06:31;;;;;;;;;0.00;0.00;;;;;15.36;62.66;99149.56;4990813;28;45473;-87
2022/04/07 11:16:53;;;;;;;;;0.00;0.00;;;;;15.56;60.47;99192.84;4865956;29;46610;-85
2022/04/07 11:20:03;;;;;;;;;0.00;0.00;;;;;15.61;58.81;99170.44;4860130;28;45469;-82
2022/04/07 11:22:56;;;;;;;;;1.00;1.00;;;;;15.60;57.92;99170.50;4984259;28;45582;-85
2022/04/07 11:25:28;;;;;;;;;1.00;1.00;;;;;15.75;58.04;99193.66;4969522;28;45450;-85
2022/04/07 11:28:37;;;;;;;;;;;;;;;;;;;;;
2022/04/07 11:35:44;;;;;;;;;;;;;;;;;;;;;
2022/04/07 11:38:12;;;;;;;;;1.00;1.00;;;;;15.94;55.88;99196.25;4936977;28;45455;-84
2022/04/07 11:41:10;;;;;;;;;1.00;0.00;;;;;15.99;55.04;99198.69;4981655;28;46069;-83
2022/04/07 11:44:09;;;;;;;;;0.00;0.00;;;;;16.14;54.85;99224.41;4971805;28;45211;-87
2022/04/07 11:50:24;;;;;;;;;1.00;1.00;;;;;16.30;52.11;99214.75;4961035;28;45528;-84
2022/04/07 11:52:59;;;;;;;;;1.33;1.00;;;;;16.33;50.88;99219.00;4943076;28;46800;-85
2022/04/07 11:55:27;;;;;;;;;0.33;0.33;;;;;16.29;51.00;99209.50;4944715;28;45885;-84
2022/04/07 11:57:59;;;;;;;;;0.00;0.00;;;;;16.39;51.61;99225.84;4947046;28;45592;-85
2022/04/07 12:01:34;;;;;;;;;1.33;0.33;;;;;16.49;51.29;99235.91;4963081;28;45354;-84
2022/04/07 12:04:15;;;;;;;;;;;;;;;;;;;;;
2022/04/07 12:07:07;;;;;;;;;1.33;1.33;;;;;16.78;51.64;99233.50;4997410;28;72786;-85
2022/04/07 12:09:33;;;;;;;;;1.00;1.00;;;;;16.86;51.15;99238.41;4972335;28;45621;-85
2022/04/07 12:11:58;;;;;;;;;0.00;0.00;;;;;16.88;51.40;99217.94;4998812;28;45349;-85
2022/04/07 12:14:27;;;;;;;;;1.00;1.00;;;;;16.94;50.60;99246.84;4999919;28;45419;-85
2022/04/07 12:16:52;;;;;;;;;1.00;1.00;;;;;16.85;50.14;99244.69;4997279;28;45629;-82
2022/04/07 12:19:19;;;;;;;;;3.00;2.00;;;;;16.90;50.18;99254.13;4981185;28;46314;-83
2022/04/07 12:21:56;;;;;;;;;1.33;1.33;;;;;16.95;49.97;99252.09;4981338;28;45690;-80
2022/04/07 12:24:23;;;;;;;;;1.67;1.67;;;;;16.92;49.63;99238.06;4979472;28;47298;-82
2022/04/07 12:26:50;;;;;;;;;1.00;1.00;;;;;16.91;48.86;99263.81;4994292;28;45467;-82
2022/04/07 12:29:30;;;;;;;;;1.00;1.00;;;;;16.73;48.23;99251.47;4976162;28;45728;-83
2022/04/07 12:32:03;;;;;;;;;1.00;1.00;;;;;16.71;47.12;99264.84;4990953;28;45308;-83
2022/04/07 12:34:30;;;;;;;;;2.00;2.00;;;;;16.69;46.29;99244.63;4994193;28;46939;-82
2022/04/07 12:36:56;;;;;;;;;1.00;1.00;;;;;16.75;44.84;99252.25;4977169;28;45523;-83
2022/04/07 12:39:27;;;;;;;;;0.33;0.33;;;;;16.77;44.88;99255.72;4979818;28;45426;-83
2022/04/07 12:42:10;;;;;;;;;1.00;1.00;;;;;16.79;43.34;99314.97;4979138;28;45409;-84
2022/04/07 12:44:43;;;;;;;;;1.67;1.00;;;;;16.77;42.72;99298.25;4997488;28;46299;-84
2022/04/07 12:47:11;;;;;;;;;0.00;0.00;;;;;16.81;42.61;99306.91;4996331;28;45476;-84
2022/04/07 12:49:40;;;;;;;;;1.33;1.33;;;;;16.81;43.27;99275.88;4978553;28;45329;-83
2022/04/07 12:52:14;;;;;;;;;0.33;0.33;;;;;16.92;43.58;99301.88;4997079;28;45440;-84
2022/04/07 12:55:03;;;;;;;;;2.00;1.00;;;;;16.98;43.81;99296.25;4979739;28;47308;-81
2022/04/07 12:57:32;;;;;;;;;2.33;2.00;;;;;16.99;43.80;99295.31;4979443;28;45425;-84
2022/04/07 12:59:59;;;;;;;;;1.67;1.00;;;;;16.94;44.47;99284.91;5003849;28;45589;-84
2022/04/07 13:02:25;;;;;;;;;1.33;1.33;;;;;16.97;43.87;99318.44;4994698;28;45493;-84
2022/04/07 13:04:54;;;;;;;;;1.00;1.00;;;;;16.81;44.10;99321.06;4996126;28;46246;-83
2022/04/07 13:07:21;;;;;;;;;1.67;1.67;;;;;16.60;44.01;99314.16;4996764;28;45432;-83
2022/04/07 13:09:50;;;;;;;;;4.00;2.00;;;;;16.68;44.53;99304.88;4978568;28;45625;-83
2022/04/07 13:12:16;;;;;;;;;1.33;1.00;;;;;16.64;44.21;99318.41;4970679;28;45393;-84
2022/04/07 13:14:45;;;;;;;;;2.00;2.00;;;;;16.64;44.29;99307.78;4977327;28;48352;-84
2022/04/07 13:17:12;;;;;;;;;3.00;2.00;;;;;16.68;44.72;99311.97;4980622;28;45971;-84
2022/04/07 13:19:40;;;;;;;;;3.00;1.67;;;;;16.74;44.39;99309.88;4997035;28;45341;-84
2022/04/07 13:22:05;;;;;;;;;1.00;1.00;;;;;16.82;44.83;99330.75;4999172;28;45301;-83
2022/04/07 13:24:31;;;;;;;;;2.00;1.00;;;;;16.91;44.44;99340.06;5007074;28;46177;-84
2022/04/07 13:26:57;;;;;;;;;3.00;1.00;;;;;16.88;43.96;99348.19;4978455;28;45725;-84
2022/04/07 13:29:24;;;;;;;;;2.00;2.00;;;;;16.80;43.76;99343.28;4975971;28;45402;-84
2022/04/07 13:31:50;;;;;;;;;2.00;1.00;;;;;16.64;43.82;99352.94;4986233;28;45502;-83
2022/04/07 13:34:16;;;;;;;;;5.33;2.33;;;;;16.56;43.52;99340.03;4980875;28;47246;-84
2022/04/07 13:36:42;;;;;;;;;1.33;0.33;;;;;16.75;44.38;99335.50;4975683;28;45721;-84
2022/04/07 13:39:12;;;;;;;;;3.00;1.67;;;;;17.25;43.54;99355.09;4980524;28;45691;-83
2022/04/07 13:41:38;;;;;;;;;4.00;1.00;;;;;17.55;42.96;99355.22;4995926;28;45259;-84
2022/04/07 13:44:04;;;;;;;;;2.00;1.00;;;;;17.60;42.25;99336.34;4996631;28;46361;-84
2022/04/07 13:46:39;;;;;;;;;1.00;1.00;;;;;17.62;41.41;99345.09;4976936;28;46404;-84
2022/04/07 13:49:05;;;;;;;;;2.33;1.00;;;;;17.66;41.57;99367.06;4997074;28;45368;-84
2022/04/07 13:51:30;;;;;;;;;1.00;1.00;;;;;17.78;41.87;99342.47;4978352;28;45461;-84
2022/04/07 13:53:58;;;;;;;;;2.67;2.00;;;;;17.84;41.65;99369.59;4997521;28;46295;-84
2022/04/07 13:56:26;;;;;;;;;2.00;1.00;;;;;17.98;41.60;99358.19;4995153;28;45748;-84
2022/04/07 13:58:52;;;;;;;;;3.00;2.00;;;;;17.95;41.13;99362.84;5012690;28;45391;-84
2022/04/07 14:01:21;;;;;;;;;1.00;1.00;;;;;17.99;40.70;99335.94;4997738;28;45614;-84
2022/04/07 14:03:49;;;;;;;;;3.00;1.33;;;;;18.22;40.60;99355.91;4982520;28;47234;-84
2022/04/07 14:06:15;;;;;;;;;3.67;2.67;;;;;18.91;39.86;99353.69;4994990;28;45374;-84
2022/04/07 14:08:44;;;;;;;;;1.33;1.33;;;;;21.01;37.87;99350.81;4977074;28;45359;-84
2022/04/07 14:11:12;;;;;;;;;0.33;0.33;;;;;23.26;34.17;99362.03;4971470;28;45698;-84
2022/04/07 14:13:40;;;;;;;;;1.00;1.00;;;;;22.41;31.93;99356.88;4969751;28;46941;-84
2022/04/07 14:16:08;;;;;;;;;0.00;0.00;;;;;23.32;30.32;99356.16;4994892;28;45553;-84
2022/04/07 14:18:34;;;;;;;;;2.33;2.00;;;;;22.99;30.65;99363.22;4993442;28;45554;-84
2022/04/07 14:21:00;;;;;;;;;1.00;1.00;;;;;22.20;31.64;99360.19;4984196;28;45479;-84
2022/04/07 14:23:26;;;;;;;;;1.67;1.33;;;;;23.06;31.79;99348.31;4984532;28;46416;-84
2022/04/07 14:25:52;;;;;;;;;0.67;0.67;;;;;23.21;31.27;99351.66;4992933;28;45402;-83
2022/04/07 14:28:18;;;;;;;;;2.33;1.00;;;;;23.91;30.23;99353.22;4980891;28;45469;-84
2022/04/07 14:30:48;;;;;;;;;0.67;0.67;;;;;23.50;30.19;99369.97;4999745;28;45358;-84
2022/04/07 14:33:17;;;;;;;;;1.33;1.00;;;;;24.27;29.64;99370.03;4983624;28;47331;-84
2022/04/07 14:35:49;;;;;;;;;2.00;2.00;;;;;25.17;26.83;99369.63;5001982;28;45656;-84
2022/04/07 14:38:15;;;;;;;;;5.00;1.00;;;;;24.64;27.52;99381.31;4980947;28;45573;-84
2022/04/07 14:40:42;;;;;;;;;2.00;1.00;;;;;25.85;27.63;99394.25;4983798;28;45278;-84
2022/04/07 14:43:08;;;;;;;;;1.67;1.67;;;;;26.02;26.99;99354.13;5000027;28;45864;-84
2022/04/07 14:45:35;;;;;;;;;0.67;0.67;;;;;27.26;26.44;99370.50;4983753;28;45365;-84
2022/04/07 14:48:00;;;;;;;;;2.00;1.00;;;;;28.49;21.10;99379.31;4982526;28;45376;-84
2022/04/07 14:50:26;;;;;;;;;0.00;0.00;;;;;29.26;21.86;99407.59;4985989;28;45301;-85
2022/04/07 14:52:52;;;;;;;;;2.33;1.00;;;;;29.85;21.24;99399.66;4989319;28;45743;-85
2022/04/07 14:55:17;;;;;;;;;1.00;1.00;;;;;29.48;20.51;99375.53;4986856;28;45346;-86
2022/04/07 14:57:43;;;;;;;;;0.50;0.50;;;;;29.25;19.47;99389.63;5007697;28;45497;-88
2022/04/07 15:00:11;;;;;;;;;1.00;1.00;;;;;29.33;19.39;99375.28;5010087;28;44873;-86
2022/04/07 15:02:37;;;;;;;;;0.67;0.67;;;;;29.18;19.73;99404.81;4974173;28;47216;-86
2022/04/07 15:05:03;;;;;;;;;1.33;1.00;;;;;28.71;19.96;99424.03;4988241;28;45489;-86
2022/04/07 15:07:31;;;;;;;;;2.33;1.00;;;;;26.63;21.74;99410.63;4986760;28;45271;-85
2022/04/07 15:09:56;;;;;;;;;3.00;1.00;;;;;24.73;23.58;99417.34;4991258;28;45347;-86
2022/04/07 15:12:22;;;;;;;;;1.00;1.00;;;;;23.66;24.81;99434.09;5004930;28;45450;-86
2022/04/07 15:14:48;;;;;;;;;0.67;0.67;;;;;23.10;25.69;99432.19;5014022;28;44853;-85
2022/04/07 15:17:14;;;;;;;;;0.00;0.00;;;;;22.41;26.45;99440.88;4998318;28;45410;-86
2022/04/07 15:19:40;;;;;;;;;1.00;0.00;;;;;22.14;27.21;99458.97;5012994;28;45453;-85